Kezdőlap
METAR-TAF:

METAR-TAF

Repülőterek :

Dubbo, Ausztrália

földrajzi szélesség: 32-12S, földrajzi hosszúság: 148-34E, magasság: 275 m

Jelenlegi meteorológiai megfigyelések

A jelentés 22 perccel ezelõtt készült, 07:30 UTC
Dél-délkeleti szél 6 kt
Hőmérséklet 12°C
Páratartalom 67%
Légköri nyomás 1026 hPa
Látótávolság 10 km, vagy több

METAR: YSDU 280730Z AUTO 16006KT 9999 // NCD 12/06 Q1026 RF00.0/000.0

Idő: 17:52 (07:52 UTC)

Előrejelzés

A jelentés 3 órával és 5 perccel ezelõtt készült, 04:47 UTC
Az előrejelzés 28-én 06 óra UTC és 29-én 00 óra UTC között érvényes
Keleti szél 7 kt
Látótávolság 10 km, vagy több
felhőtlen 1500 m magasságban, és nincs gomolyfelhõ

TAF: YSDU 280447Z 2806/2900 10007KT CAVOK

Meteorológiai megfigyelések és előrejelzések több, mint 4000 repülőtéren (METAR és TAF jelentéseket).

A térképen piros és sárga pontok jelzik az elérhető meteorológiai állomásokat.

Mozgassa az egeret a pont fölött, hogy megjelenjen az állomás neve.

Azután kattintson az időjárási megfigyelések és előrejelzések megtekintéséhez.

A térkép megváltoztatása: kattintson a fekete keresztel jelölt zöld gombra ráközelítéshez, a vonallal jelölt zöld gombra távolításhoz, vagy a zöld nyilakra a szomszédos térképek eléréséhez.


METAR-TAF: